Strona główna
METAR-TAF:

METAR-TAF

Lotnisko :

Dübendorf, Szwajcaria

Szerokość geograficzna: 47-23-55N, Długość geograficzna: 8-38-53E, wysokość: 448 m

Aktualna obserwacja pogody

Raport powstał 30 minut temu, godzina 00:50 UTC
Wiatr 3 kt od północny zachód
Temperatura -2°C
Wilgotność 86%
Ciśnienie 1040 hPa
Widzialność 10 km lub więcej

METAR: LSMD 210050Z AUTO 32003KT 9999NDV R11/P2000N R29/M0050N NCD M02/M04 Q1040 RMK

czas: 02:20 (01:20 UTC)


TAF: brakujący

Obserwacja i prognoza pogody dla ponad 4000 lotnisk (raport METAR i TAF).

Dostępne stacje oznaczono żółtymi i czerwonymi punktami na mapie.

Najedź kursorem aby zobaczyć nazwę stacji.

Kliknij aby zobaczyć obserwacje i prognozy pogody.

Aby zmienić mapę: kliknij na zielony przycisk z czarnym krzyżykiem, aby powiększyć; na zielony przycisk z myślnikiem, aby pomniejszyć; na zielone strzałki, aby przejść do map sąsiednich.


METAR-TAF: